Time;durP1;ratioP1;P1;durP2;ratioP2;P2;SDS_P1;SDS_P2;PMS_P1;PMS_P2;Temp;Humidity;BMP_temperature;BMP_pressure;BME280_temperature;BME280_humidity;BME280_pressure;Samples;Min_cycle;Max_cycle;Signal;HPM_P1;HPM_P2
2021/06/24 00:01:52;;;;;;;6.63;6.03;;;15.50;99.90;;;;;;5154257;27;20022;-76
2021/06/24 00:04:17;;;;;;;6.90;6.28;;;15.50;99.90;;;;;;5154441;27;20043;-76
2021/06/24 00:06:43;;;;;;;7.47;6.78;;;15.60;99.90;;;;;;5135629;27;20025;-74
2021/06/24 00:09:09;;;;;;;9.27;8.38;;;15.50;99.90;;;;;;5153988;27;20053;-74
2021/06/24 00:11:35;;;;;;;9.43;7.43;;;15.60;99.90;;;;;;5153557;27;20019;-76
2021/06/24 00:14:01;;;;;;;8.73;7.82;;;15.60;99.90;;;;;;5154516;27;20030;-75
2021/06/24 00:16:27;;;;;;;10.57;7.97;;;15.60;99.90;;;;;;5139390;27;20023;-76
2021/06/24 00:18:53;;;;;;;10.60;9.50;;;15.70;99.90;;;;;;5133536;27;20031;-74
2021/06/24 00:21:19;;;;;;;12.63;10.18;;;15.70;99.90;;;;;;5113978;27;20031;-75
2021/06/24 00:23:45;;;;;;;10.95;8.88;;;15.70;99.90;;;;;;5133194;27;20031;-76
2021/06/24 00:26:10;;;;;;;13.07;10.45;;;15.80;99.90;;;;;;5133151;27;20046;-76
2021/06/24 00:28:36;;;;;;;14.48;10.20;;;15.80;99.90;;;;;;5132904;27;20023;-75
2021/06/24 00:31:02;;;;;;;15.27;9.55;;;15.80;99.90;;;;;;5113972;27;20429;-75
2021/06/24 00:33:28;;;;;;;10.30;9.30;;;15.90;99.90;;;;;;5114589;27;20025;-76
2021/06/24 00:35:54;;;;;;;11.80;8.77;;;15.90;99.90;;;;;;5132789;27;20362;-75
2021/06/24 00:38:20;;;;;;;11.52;9.32;;;15.80;99.90;;;;;;5132736;27;20027;-75
2021/06/24 00:40:46;;;;;;;11.73;8.13;;;15.90;99.90;;;;;;5132133;27;20027;-76
2021/06/24 00:43:15;;;;;;;10.13;7.35;;;15.90;99.90;;;;;;5132689;27;20011;-75
2021/06/24 00:45:41;;;;;;;8.75;7.88;;;15.80;99.90;;;;;;5114475;27;20027;-75
2021/06/24 00:48:08;;;;;;;9.43;7.45;;;15.80;99.90;;;;;;5132805;27;20026;-76
2021/06/24 00:50:36;;;;;;;8.63;7.40;;;15.80;99.90;;;;;;5114038;27;20088;-74
2021/06/24 00:53:02;;;;;;;7.80;7.00;;;15.80;99.90;;;;;;5132787;27;20477;-75
2021/06/24 00:56:01;;;;;;;10.90;7.32;;;15.80;99.90;;;;;;5132865;27;20031;-75
2021/06/24 00:58:22;;;;;;;10.93;6.85;;;15.70;99.90;;;;;;5128567;27;20031;-75
2021/06/24 01:00:54;;;;;;;13.15;6.90;;;15.80;99.90;;;;;;5132289;27;20027;-75
2021/06/24 01:03:20;;;;;;;8.48;7.38;;;15.70;99.90;;;;;;5132808;27;20037;-75
2021/06/24 01:05:47;;;;;;;8.82;6.97;;;15.70;99.90;;;;;;5132779;27;20127;-75
2021/06/24 01:08:16;;;;;;;7.75;6.95;;;15.60;99.90;;;;;;5132809;27;20068;-75
2021/06/24 01:10:46;;;;;;;9.52;7.03;;;15.60;99.90;;;;;;5136758;28;20019;-75
2021/06/24 01:13:13;;;;;;;6.80;6.00;;;15.60;99.90;;;;;;5119715;28;20106;-75
2021/06/24 01:15:40;;;;;;;8.25;6.32;;;15.70;99.90;;;;;;5134697;27;20384;-74
2021/06/24 01:18:06;;;;;;;7.10;6.60;;;15.60;99.90;;;;;;5132961;28;20024;-74
2021/06/24 01:20:35;;;;;;;7.20;6.60;;;15.60;99.90;;;;;;5131782;28;20487;-75
2021/06/24 01:23:02;;;;;;;9.45;6.95;;;15.50;99.90;;;;;;5132511;28;20536;-75
2021/06/24 01:25:28;;;;;;;7.03;6.32;;;15.60;99.90;;;;;;5131356;28;20494;-75
2021/06/24 01:28:09;;;;;;;6.68;5.75;;;15.60;99.90;;;;;;5132842;28;20023;-75
2021/06/24 01:30:37;;;;;;;9.07;6.95;;;15.60;99.90;;;;;;5113432;28;20031;-75
2021/06/24 01:33:04;;;;;;;6.05;5.55;;;15.60;99.90;;;;;;5132677;28;20019;-75
2021/06/24 01:35:31;;;;;;;7.25;6.55;;;15.50;99.90;;;;;;5134826;28;20019;-75
2021/06/24 01:38:05;;;;;;;7.40;6.00;;;15.50;99.90;;;;;;5142762;28;20031;-75
2021/06/24 01:40:31;;;;;;;11.45;5.30;;;15.50;99.90;;;;;;5123637;28;20019;-75
2021/06/24 01:42:57;;;;;;;5.60;5.10;;;15.60;99.90;;;;;;5137082;28;20064;-75
2021/06/24 01:45:23;;;;;;;5.20;4.70;;;15.50;99.90;;;;;;5132341;27;20484;-75
2021/06/24 01:47:50;;;;;;;5.25;4.85;;;15.50;99.90;;;;;;5132329;28;20106;-75
2021/06/24 01:50:16;;;;;;;4.85;4.45;;;15.40;99.90;;;;;;5131168;28;20573;-75
2021/06/24 01:52:46;;;;;;;4.75;4.40;;;15.40;99.90;;;;;;5134230;27;20023;-75
2021/06/24 01:55:13;;;;;;;5.95;4.20;;;15.40;99.90;;;;;;5136427;27;20171;-75
2021/06/24 01:57:39;;;;;;;5.45;4.03;;;15.40;99.90;;;;;;5138088;27;20018;-76
2021/06/24 02:00:07;;;;;;;7.97;5.93;;;15.30;99.90;;;;;;5156331;27;20031;-75
2021/06/24 02:02:33;;;;;;;7.93;4.72;;;15.30;99.90;;;;;;5156727;27;20034;-75
2021/06/24 02:04:58;;;;;;;5.63;4.68;;;15.30;99.90;;;;;;5137891;27;20026;-75
2021/06/24 02:07:24;;;;;;;4.95;4.55;;;15.40;99.90;;;;;;5138111;27;20031;-75
2021/06/24 02:09:50;;;;;;;4.38;4.00;;;15.20;99.90;;;;;;5155978;27;20438;-74
2021/06/24 02:12:16;;;;;;;5.28;4.13;;;15.30;99.90;;;;;;5156736;27;20019;-75
2021/06/24 02:14:41;;;;;;;4.75;4.35;;;15.20;99.90;;;;;;5156401;27;20071;-74
2021/06/24 02:17:07;;;;;;;4.80;4.40;;;15.20;99.90;;;;;;5137879;27;20019;-75
2021/06/24 02:19:33;;;;;;;7.15;4.13;;;15.30;99.90;;;;;;5137305;27;20117;-75
2021/06/24 02:21:58;;;;;;;4.50;4.10;;;15.20;99.90;;;;;;5156088;27;20472;-75
2021/06/24 02:24:24;;;;;;;8.52;4.85;;;15.20;99.90;;;;;;5156407;27;20019;-74
2021/06/24 02:26:50;;;;;;;5.20;4.80;;;15.20;99.90;;;;;;5141639;27;20053;-74
2021/06/24 02:29:16;;;;;;;8.02;5.50;;;15.10;99.90;;;;;;5135424;27;20389;-75
2021/06/24 02:31:41;;;;;;;9.45;6.32;;;15.20;99.90;;;;;;5134694;27;20083;-75
2021/06/24 02:34:07;;;;;;;7.45;5.30;;;15.10;99.90;;;;;;5116975;27;20027;-76
2021/06/24 02:36:33;;;;;;;5.90;5.40;;;15.10;99.90;;;;;;5135062;27;20019;-75
2021/06/24 02:38:59;;;;;;;7.45;5.82;;;15.00;99.90;;;;;;5135827;27;20033;-74
2021/06/24 02:41:24;;;;;;;8.05;5.63;;;15.00;99.90;;;;;;5135122;27;20466;-74
2021/06/24 02:43:50;;;;;;;8.43;6.00;;;15.00;99.90;;;;;;5151033;27;20038;-73
2021/06/24 02:46:16;;;;;;;7.10;6.50;;;15.00;99.90;;;;;;5143076;27;20027;-75
2021/06/24 02:48:41;;;;;;;7.50;6.18;;;15.10;99.90;;;;;;5135032;27;20035;-75
2021/06/24 02:51:07;;;;;;;6.28;5.78;;;15.00;99.90;;;;;;5134267;27;20019;-75
2021/06/24 02:53:33;;;;;;;7.28;6.28;;;15.00;99.90;;;;;;5134927;27;20050;-75
2021/06/24 02:55:58;;;;;;;7.93;6.63;;;15.10;99.90;;;;;;5135122;27;20023;-76
2021/06/24 02:58:24;;;;;;;10.07;6.95;;;15.10;99.90;;;;;;5134842;27;20023;-76
2021/06/24 03:00:50;;;;;;;8.30;7.50;;;15.10;99.90;;;;;;5134389;27;20023;-75
2021/06/24 03:03:15;;;;;;;8.77;7.88;;;15.10;99.90;;;;;;5134889;27;20027;-75
2021/06/24 03:05:41;;;;;;;9.32;8.50;;;15.00;99.90;;;;;;5116122;27;20496;-75
2021/06/24 03:08:07;;;;;;;8.13;7.32;;;15.10;99.90;;;;;;5134617;27;20031;-75
2021/06/24 03:10:33;;;;;;;9.27;7.93;;;15.10;99.90;;;;;;5134188;27;20019;-75
2021/06/24 03:12:59;;;;;;;11.13;7.65;;;15.10;99.90;;;;;;5116647;27;20035;-74
2021/06/24 03:15:25;;;;;;;8.07;7.28;;;15.10;99.90;;;;;;5134705;27;20480;-74
2021/06/24 03:17:51;;;;;;;10.05;7.80;;;15.10;99.90;;;;;;5116075;27;20027;-74
2021/06/24 03:20:17;;;;;;;8.23;7.43;;;15.10;99.90;;;;;;5133505;27;20031;-75
2021/06/24 03:22:43;;;;;;;8.65;7.85;;;15.10;99.90;;;;;;5132103;27;20042;-74
2021/06/24 03:25:12;;;;;;;7.97;7.30;;;15.20;99.90;;;;;;5134435;27;20027;-75
2021/06/24 03:27:38;;;;;;;8.07;7.28;;;15.20;99.90;;;;;;5134355;27;20027;-75
2021/06/24 03:30:05;;;;;;;7.30;6.65;;;15.10;99.90;;;;;;5115201;27;20073;-75
2021/06/24 03:32:31;;;;;;;8.52;7.07;;;15.10;99.90;;;;;;5134231;27;20029;-74
2021/06/24 03:34:57;;;;;;;7.07;6.32;;;15.20;99.90;;;;;;5134258;27;20102;-74
2021/06/24 03:37:23;;;;;;;8.18;7.05;;;15.10;99.90;;;;;;5133734;27;20027;-74
2021/06/24 03:39:48;;;;;;;8.65;6.35;;;15.10;99.90;;;;;;5115190;27;20443;-74
2021/06/24 03:42:15;;;;;;;6.82;6.05;;;15.10;99.90;;;;;;5135086;27;20127;-74
2021/06/24 03:44:41;;;;;;;7.03;6.43;;;15.10;99.90;;;;;;5120712;27;20103;-75
2021/06/24 03:47:06;;;;;;;6.18;5.68;;;15.20;99.90;;;;;;5136088;27;20065;-75
2021/06/24 03:49:32;;;;;;;6.97;5.97;;;15.20;99.90;;;;;;5134330;27;20027;-75
2021/06/24 03:51:58;;;;;;;6.47;5.88;;;15.10;99.90;;;;;;5115665;27;20019;-75
2021/06/24 03:54:23;;;;;;;7.65;6.32;;;15.20;99.90;;;;;;5133982;27;20023;-76
2021/06/24 03:56:49;;;;;;;6.18;5.68;;;15.20;99.90;;;;;;5133713;27;20027;-76
2021/06/24 03:59:15;;;;;;;8.15;5.95;;;15.20;99.90;;;;;;5133963;27;20106;-78
2021/06/24 04:01:43;;;;;;;6.43;5.78;;;15.30;99.90;;;;;;5133931;27;20038;-75
2021/06/24 04:04:11;;;;;;;6.40;5.72;;;15.40;99.90;;;;;;5115620;27;20528;-76
2021/06/24 04:06:36;;;;;;;6.13;5.43;;;15.40;99.90;;;;;;5133642;27;20023;-76
2021/06/24 04:09:03;;;;;;;4.97;4.57;;;15.50;99.90;;;;;;5133335;27;20466;-75
2021/06/24 04:11:29;;;;;;;5.10;4.60;;;15.40;99.90;;;;;;5114380;27;20495;-76
2021/06/24 04:13:54;;;;;;;9.27;8.23;;;15.50;99.90;;;;;;5127018;27;20011;-72
2021/06/24 04:16:20;;;;;;;8.27;7.20;;;15.50;99.90;;;;;;5132868;27;20047;-77
2021/06/24 04:18:46;;;;;;;6.63;6.13;;;15.60;99.90;;;;;;5135619;27;20063;-76
2021/06/24 04:21:11;;;;;;;8.35;7.60;;;15.60;99.90;;;;;;5134115;27;20497;-76
2021/06/24 04:23:37;;;;;;;8.60;7.78;;;15.70;99.90;;;;;;5152951;27;20221;-76
2021/06/24 04:26:03;;;;;;;9.07;7.72;;;15.80;99.90;;;;;;5147661;27;20023;-76
2021/06/24 04:28:29;;;;;;;9.23;8.38;;;15.90;99.90;;;;;;5149844;27;20035;-75
2021/06/24 04:30:54;;;;;;;9.45;8.07;;;15.90;99.90;;;;;;5152536;27;20030;-75
2021/06/24 04:33:20;;;;;;;9.73;7.70;;;16.00;99.90;;;;;;5143372;27;20023;-76
2021/06/24 04:35:46;;;;;;;10.23;6.88;;;16.00;99.90;;;;;;5134920;27;20023;-75
2021/06/24 04:38:12;;;;;;;7.97;6.95;;;16.00;99.90;;;;;;5134384;27;20023;-75
2021/06/24 04:40:38;;;;;;;7.80;6.95;;;16.00;99.90;;;;;;5114442;27;20493;-75
2021/06/24 04:43:04;;;;;;;10.25;7.25;;;16.10;99.90;;;;;;5116410;27;20035;-76
2021/06/24 04:45:30;;;;;;;7.32;6.72;;;16.20;99.90;;;;;;5134411;27;20096;-77
2021/06/24 04:47:56;;;;;;;11.30;7.50;;;16.20;99.90;;;;;;5134928;27;20504;-77
2021/06/24 04:50:21;;;;;;;8.60;7.28;;;16.20;99.90;;;;;;5130437;27;20027;-75
2021/06/24 04:52:47;;;;;;;8.40;6.40;;;16.20;99.90;;;;;;5137785;27;20019;-72
2021/06/24 04:55:13;;;;;;;7.32;6.70;;;16.50;99.90;;;;;;5132880;27;20113;-72
2021/06/24 04:57:40;;;;;;;7.90;7.30;;;16.70;99.90;;;;;;5132466;27;20055;-73
2021/06/24 05:00:07;;;;;;;8.13;7.47;;;16.70;99.90;;;;;;5134915;27;20173;-72
2021/06/24 05:02:33;;;;;;;8.43;5.93;;;16.60;99.90;;;;;;5133947;27;20020;-74
2021/06/24 05:04:58;;;;;;;7.40;6.40;;;16.70;99.90;;;;;;5133823;27;20589;-75
2021/06/24 05:07:24;;;;;;;8.50;5.22;;;16.80;99.90;;;;;;5135222;27;20083;-76
2021/06/24 05:09:50;;;;;;;10.57;7.70;;;16.80;99.90;;;;;;5134030;27;20022;-77
2021/06/24 05:12:16;;;;;;;7.97;7.38;;;16.80;99.90;;;;;;5134674;27;20015;-75
2021/06/24 05:14:41;;;;;;;10.90;9.52;;;16.70;99.90;;;;;;5132200;27;20022;-73
2021/06/24 05:17:12;;;;;;;11.13;10.02;;;16.70;99.90;;;;;;5113894;28;20064;-73
2021/06/24 05:19:38;;;;;;;13.43;9.27;;;16.60;99.90;;;;;;5132305;28;20109;-74
2021/06/24 05:22:04;;;;;;;10.60;9.70;;;16.60;99.90;;;;;;5132958;28;20066;-78
2021/06/24 05:24:30;;;;;;;13.68;11.75;;;16.60;99.90;;;;;;5113809;28;20114;-76
2021/06/24 05:26:56;;;;;;;11.10;10.02;;;16.70;99.90;;;;;;5119125;27;20027;-75
2021/06/24 05:29:22;;;;;;;12.10;10.82;;;16.70;99.90;;;;;;5119466;27;20068;-76
2021/06/24 05:31:47;;;;;;;12.05;10.57;;;16.70;99.90;;;;;;5136531;27;20019;-77
2021/06/24 05:34:13;;;;;;;15.15;10.48;;;16.60;99.90;;;;;;5118745;27;20072;-75
2021/06/24 05:36:39;;;;;;;15.25;11.55;;;16.50;99.90;;;;;;5139307;27;20023;-76
2021/06/24 05:39:05;;;;;;;12.30;10.95;;;16.40;99.90;;;;;;5140446;27;20389;-71
2021/06/24 05:41:31;;;;;;;12.48;10.13;;;16.40;99.90;;;;;;5136626;27;20050;-71
2021/06/24 05:43:56;;;;;;;13.05;11.75;;;16.60;99.90;;;;;;5136068;27;20439;-71
2021/06/24 05:46:22;;;;;;;14.20;11.73;;;16.60;99.90;;;;;;5131624;27;20068;-74
2021/06/24 05:48:51;;;;;;;11.43;10.43;;;16.70;99.90;;;;;;5153124;27;20026;-74
2021/06/24 05:51:18;;;;;;;12.95;11.55;;;16.80;99.90;;;;;;5136827;27;20427;-71
2021/06/24 05:53:44;;;;;;;11.65;10.43;;;16.90;99.90;;;;;;5135446;27;20019;-70
2021/06/24 05:56:09;;;;;;;16.45;12.88;;;16.90;99.90;;;;;;5135560;27;20023;-73
2021/06/24 05:58:35;;;;;;;15.88;13.50;;;17.10;99.90;;;;;;5134824;27;20102;-72
2021/06/24 06:01:01;;;;;;;16.10;13.30;;;17.20;99.90;;;;;;5133772;27;20066;-73
2021/06/24 06:03:27;;;;;;;20.05;14.23;;;17.20;99.90;;;;;;5135436;27;20094;-73
2021/06/24 06:05:53;;;;;;;14.52;13.02;;;17.20;99.90;;;;;;5135708;27;20036;-73
2021/06/24 06:08:21;;;;;;;11.75;10.65;;;17.20;99.90;;;;;;5135729;27;20512;-74
2021/06/24 06:10:47;;;;;;;14.85;10.60;;;17.30;99.90;;;;;;5135356;27;20451;-75
2021/06/24 06:13:13;;;;;;;11.10;10.10;;;17.50;99.90;;;;;;5137128;27;20015;-76
2021/06/24 06:15:44;;;;;;;9.55;8.57;;;17.60;99.90;;;;;;5117946;27;20114;-75
2021/06/24 06:18:17;;;;;;;7.15;6.38;;;17.80;99.90;;;;;;5135442;27;20008;-73
2021/06/24 06:20:45;;;;;;;8.15;4.78;;;17.80;99.90;;;;;;5116870;27;20057;-71
2021/06/24 06:23:11;;;;;;;7.32;3.65;;;17.90;99.90;;;;;;5146425;27;20033;-80
2021/06/24 06:25:37;;;;;;;5.43;3.10;;;18.00;99.90;;;;;;5143202;27;20023;-79
2021/06/24 06:28:03;;;;;;;4.90;3.10;;;18.00;99.90;;;;;;5122590;27;20034;-77
2021/06/24 06:30:29;;;;;;;4.32;2.80;;;17.90;99.90;;;;;;5136912;27;20033;-78
2021/06/24 06:32:55;;;;;;;3.63;3.05;;;17.90;99.90;;;;;;5118902;27;20023;-78
2021/06/24 06:35:22;;;;;;;4.40;3.20;;;17.80;99.90;;;;;;5120231;27;20022;-77
2021/06/24 06:37:48;;;;;;;6.93;3.20;;;17.80;99.90;;;;;;5118912;27;20069;-77
2021/06/24 06:40:14;;;;;;;3.88;2.50;;;17.80;99.90;;;;;;5137836;27;20023;-77
2021/06/24 06:42:40;;;;;;;5.78;2.50;;;17.90;99.90;;;;;;5138339;27;20027;-77
2021/06/24 06:45:07;;;;;;;2.60;2.40;;;17.80;99.90;;;;;;5120845;27;20027;-77
2021/06/24 06:47:33;;;;;;;4.22;2.88;;;17.90;99.90;;;;;;5136857;27;20019;-76
2021/06/24 06:49:58;;;;;;;3.28;2.15;;;18.00;99.90;;;;;;5136441;27;20051;-77
2021/06/24 06:52:24;;;;;;;4.10;2.40;;;18.10;99.90;;;;;;5139313;22;20794;-71
2021/06/24 06:54:50;;;;;;;4.00;2.30;;;18.30;99.90;;;;;;5096824;28;20027;-74
2021/06/24 06:57:15;;;;;;;2.67;2.22;;;18.80;99.90;;;;;;5094269;28;20034;-73
2021/06/24 06:59:41;;;;;;;7.85;1.65;;;19.10;99.90;;;;;;5099367;28;20060;-72
2021/06/24 07:02:10;;;;;;;2.00;1.90;;;19.20;99.90;;;;;;5097086;28;20482;-72
2021/06/24 07:04:36;;;;;;;1.75;1.60;;;19.30;99.90;;;;;;5075632;28;20497;-74
2021/06/24 07:07:03;;;;;;;2.30;2.10;;;19.40;99.90;;;;;;5093753;28;20036;-73
2021/06/24 07:09:28;;;;;;;5.30;1.70;;;19.40;99.90;;;;;;5075192;28;20535;-73
2021/06/24 07:11:54;;;;;;;4.72;1.90;;;19.40;99.90;;;;;;5093825;28;20031;-73
2021/06/24 07:14:21;;;;;;;1.70;1.60;;;19.50;99.90;;;;;;5093636;28;20023;-73
2021/06/24 07:16:47;;;;;;;1.60;1.50;;;19.70;99.90;;;;;;5094140;28;20016;-72
2021/06/24 07:19:13;;;;;;;1.90;1.80;;;19.90;99.90;;;;;;5075784;28;20077;-73
2021/06/24 07:21:39;;;;;;;2.13;1.60;;;20.10;99.90;;;;;;5093113;28;20035;-73
2021/06/24 07:24:05;;;;;;;2.00;1.90;;;20.10;99.90;;;;;;5093794;28;20020;-72
2021/06/24 07:26:31;;;;;;;4.15;1.98;;;19.90;99.90;;;;;;5093960;28;20107;-71
2021/06/24 07:28:57;;;;;;;1.80;1.70;;;19.90;99.90;;;;;;5093213;28;20062;-73
2021/06/24 07:31:22;;;;;;;3.50;1.80;;;19.90;99.90;;;;;;5092862;28;20019;-72
2021/06/24 07:33:48;;;;;;;4.00;1.60;;;19.70;99.90;;;;;;5093202;28;20020;-72
2021/06/24 07:36:13;;;;;;;2.20;1.60;;;19.80;99.90;;;;;;5093476;28;20028;-71
2021/06/24 07:38:39;;;;;;;2.17;1.75;;;19.90;99.90;;;;;;5093657;28;20077;-72
2021/06/24 07:41:05;;;;;;;5.07;1.98;;;20.30;99.90;;;;;;5092563;28;20020;-74
2021/06/24 07:43:30;;;;;;;9.52;1.95;;;20.50;99.90;;;;;;5093125;28;20020;-70
2021/06/24 07:45:56;;;;;;;2.05;1.95;;;20.40;99.90;;;;;;5101123;27;20028;-72
2021/06/24 07:48:22;;;;;;;2.95;1.75;;;20.50;99.90;;;;;;5074666;28;20398;-71
2021/06/24 07:50:49;;;;;;;1.92;1.73;;;20.20;99.90;;;;;;5091220;28;20504;-74
2021/06/24 07:53:14;;;;;;;2.42;1.42;;;20.20;99.90;;;;;;5093071;28;20044;-72
2021/06/24 07:55:40;;;;;;;2.00;1.67;;;20.50;99.90;;;;;;5093087;28;20500;-70
2021/06/24 07:58:07;;;;;;;1.77;1.50;;;20.40;99.90;;;;;;5074676;28;20153;-72
2021/06/24 08:00:34;;;;;;;2.55;1.67;;;20.70;99.90;;;;;;5091278;28;20082;-73
2021/06/24 08:03:00;;;;;;;2.65;1.60;;;20.20;99.90;;;;;;5092731;28;20028;-72
2021/06/24 08:05:26;;;;;;;3.08;1.65;;;20.30;99.90;;;;;;5092903;28;20409;-72
2021/06/24 08:07:53;;;;;;;3.75;1.55;;;20.30;99.90;;;;;;5099011;28;20031;-74
2021/06/24 08:10:19;;;;;;;5.82;1.52;;;20.70;99.90;;;;;;5091681;28;20093;-72
2021/06/24 08:12:47;;;;;;;2.03;1.55;;;21.00;99.90;;;;;;5100776;28;20508;-72
2021/06/24 08:15:14;;;;;;;3.28;1.50;;;21.00;99.90;;;;;;5095221;28;20505;-72
2021/06/24 08:17:41;;;;;;;4.72;1.77;;;21.00;99.90;;;;;;5113914;28;20011;-74
2021/06/24 08:20:08;;;;;;;3.30;1.48;;;21.20;99.90;;;;;;5113737;28;20023;-74
2021/06/24 08:22:34;;;;;;;3.00;1.50;;;20.80;99.90;;;;;;5096580;28;20028;-74
2021/06/24 08:25:00;;;;;;;1.90;1.70;;;20.30;99.90;;;;;;5103426;28;20050;-74
2021/06/24 08:27:25;;;;;;;1.98;1.50;;;20.40;99.90;;;;;;5095730;28;20035;-74
2021/06/24 08:29:51;;;;;;;2.67;1.90;;;20.40;99.90;;;;;;5094570;28;20039;-75
2021/06/24 08:32:17;;;;;;;1.70;1.60;;;20.70;99.90;;;;;;5095303;28;20020;-74
2021/06/24 08:34:43;;;;;;;1.80;1.70;;;21.10;99.90;;;;;;5097022;28;20016;-74
2021/06/24 08:37:09;;;;;;;2.53;1.50;;;21.10;99.90;;;;;;5096371;28;20094;-74
2021/06/24 08:39:35;;;;;;;2.67;1.35;;;21.10;99.90;;;;;;5094705;28;20032;-74
2021/06/24 08:42:02;;;;;;;2.08;1.80;;;20.80;99.90;;;;;;5094793;28;20035;-74
2021/06/24 08:44:28;;;;;;;1.63;1.52;;;20.80;99.90;;;;;;5095389;28;20039;-75
2021/06/24 08:46:57;;;;;;;1.52;1.42;;;20.60;99.90;;;;;;5136392;27;20098;-75
2021/06/24 08:49:25;;;;;;;1.95;1.45;;;21.40;99.90;;;;;;5134425;27;20030;-75
2021/06/24 08:51:55;;;;;;;4.78;1.88;;;22.20;99.90;;;;;;5099016;28;20055;-75
2021/06/24 08:54:21;;;;;;;4.30;1.40;;;22.90;99.90;;;;;;5113298;28;20024;-74
2021/06/24 08:56:47;;;;;;;2.80;1.50;;;22.60;99.90;;;;;;5114397;28;20079;-74
2021/06/24 08:59:13;;;;;;;1.40;1.30;;;22.40;99.90;;;;;;5115105;28;20031;-73
2021/06/24 09:01:58;;;;;;;1.98;1.33;;;22.70;99.90;;;;;;5102987;28;20027;-74
2021/06/24 09:04:29;;;;;;;3.55;1.63;;;22.10;99.90;;;;;;5091921;28;20087;-74
2021/06/24 09:07:09;;;;;;;1.40;1.30;;;22.50;99.90;;;;;;5102856;28;20121;-75
2021/06/24 09:09:37;;;;;;;1.95;1.50;;;23.30;99.90;;;;;;5099325;28;20278;-76
2021/06/24 09:12:10;;;;;;;1.48;1.38;;;23.20;99.90;;;;;;5091402;28;20474;-74
2021/06/24 09:14:41;;;;;;;1.40;1.30;;;23.20;99.90;;;;;;5092111;28;20108;-74
2021/06/24 09:17:08;;;;;;;2.20;2.00;;;23.80;99.90;;;;;;5090737;28;20031;-75
2021/06/24 09:19:37;;;;;;;1.48;1.38;;;24.00;99.90;;;;;;5092602;28;20090;-74
2021/06/24 09:22:08;;;;;;;1.33;1.23;;;23.20;99.90;;;;;;5073685;28;20063;-74
2021/06/24 09:24:38;;;;;;;1.48;1.38;;;22.90;99.90;;;;;;5092100;28;20048;-74
2021/06/24 09:27:13;;;;;;;1.63;1.33;;;23.50;99.90;;;;;;5092013;28;20027;-73
2021/06/24 09:29:38;;;;;;;1.45;1.25;;;24.30;99.90;;;;;;5091181;28;20032;-72
2021/06/24 09:32:04;;;;;;;1.92;1.10;;;24.50;99.90;;;;;;5091269;28;20077;-73
2021/06/24 09:34:30;;;;;;;4.00;1.25;;;24.90;99.90;;;;;;5092056;28;20043;-73
2021/06/24 09:36:59;;;;;;;0.82;0.82;;;25.20;99.90;;;;;;5074600;28;20129;-72
2021/06/24 09:39:32;;;;;;;1.67;1.40;;;24.20;99.90;;;;;;5073903;28;20441;-72
2021/06/24 09:42:05;;;;;;;1.58;1.48;;;23.80;99.90;;;;;;5092300;28;20020;-74
2021/06/24 09:44:32;;;;;;;1.27;1.15;;;24.10;99.90;;;;;;5092775;28;20028;-72
2021/06/24 09:46:59;;;;;;;1.30;1.30;;;23.60;99.90;;;;;;5094690;28;20024;-72
2021/06/24 09:49:29;;;;;;;1.67;1.35;;;23.30;99.90;;;;;;5073038;28;20875;-72
2021/06/24 09:51:57;;;;;;;2.08;1.20;;;23.30;99.90;;;;;;5093027;28;20063;-74
2021/06/24 09:54:34;;;;;;;1.98;1.73;;;23.20;99.90;;;;;;5093123;28;20027;-74
2021/06/24 09:57:02;;;;;;;1.60;1.50;;;23.30;99.90;;;;;;5093753;28;20032;-74
2021/06/24 09:59:39;;;;;;;1.15;1.10;;;23.50;99.90;;;;;;5091936;28;20554;-74
2021/06/24 10:02:06;;;;;;;1.63;1.33;;;23.30;99.90;;;;;;5073718;28;20416;-73
2021/06/24 10:04:32;;;;;;;4.53;1.13;;;24.10;99.90;;;;;;5096002;28;20039;-75
2021/06/24 10:07:08;;;;;;;1.30;1.20;;;24.80;99.90;;;;;;5094538;28;20028;-74
2021/06/24 10:09:33;;;;;;;7.97;2.58;;;24.10;99.90;;;;;;5093470;28;20024;-73
2021/06/24 10:12:00;;;;;;;2.55;1.92;;;24.70;99.90;;;;;;5103199;28;20027;-71
2021/06/24 10:14:27;;;;;;;1.50;1.40;;;25.10;99.90;;;;;;5099634;28;20024;-72
2021/06/24 10:17:02;;;;;;;1.40;1.30;;;25.00;99.90;;;;;;5097739;28;20028;-72
2021/06/24 10:19:39;;;;;;;5.07;1.35;;;24.60;99.90;;;;;;5076381;28;20052;-71
2021/06/24 10:22:11;;;;;;;1.40;1.30;;;25.20;99.90;;;;;;5094734;28;20069;-72
2021/06/24 10:24:39;;;;;;;4.22;1.90;;;25.30;99.90;;;;;;5094709;28;20103;-75
2021/06/24 10:27:08;;;;;;;2.05;1.30;;;24.50;99.90;;;;;;5094778;28;20016;-75
2021/06/24 10:30:12;;;;;;;4.78;2.50;;;23.50;99.90;;;;;;5093890;28;20024;-74
2021/06/24 10:32:39;;;;;;;5.68;1.40;;;23.10;99.90;;;;;;5026547;28;20035;-74
2021/06/24 10:35:22;;;;;;;2.25;1.27;;;23.30;99.90;;;;;;5094375;28;20024;-75
2021/06/24 10:37:50;;;;;;;1.50;1.40;;;22.60;99.90;;;;;;5094443;28;20019;-73
2021/06/24 10:40:24;;;;;;;4.10;1.52;;;23.10;99.90;;;;;;5093567;28;20036;-72
2021/06/24 10:42:55;;;;;;;1.75;1.42;;;23.00;99.90;;;;;;5094112;28;20508;-73
2021/06/24 10:45:21;;;;;;;1.48;1.20;;;23.10;99.90;;;;;;5094320;28;20027;-74
2021/06/24 10:47:48;;;;;;;3.85;1.20;;;23.40;99.90;;;;;;5093934;28;20031;-75
2021/06/24 10:50:38;;;;;;;1.20;1.10;;;23.30;99.90;;;;;;5094083;28;20028;-74
2021/06/24 10:53:04;;;;;;;1.58;1.42;;;22.90;99.90;;;;;;5095405;28;20146;-73
2021/06/24 10:55:40;;;;;;;3.08;1.15;;;23.00;99.90;;;;;;5111318;27;20455;-74
2021/06/24 10:58:17;;;;;;;1.23;1.13;;;23.10;99.90;;;;;;5116434;27;20023;-74
2021/06/24 11:00:45;;;;;;;3.33;0.70;;;23.60;99.90;;;;;;5134129;27;20023;-74
2021/06/24 11:03:12;;;;;;;2.15;1.02;;;24.10;99.90;;;;;;5134550;27;20060;-74
2021/06/24 11:05:43;;;;;;;1.42;0.88;;;25.20;99.90;;;;;;5135117;27;20055;-75
2021/06/24 11:08:14;;;;;;;2.25;0.60;;;24.80;99.90;;;;;;5134602;27;20051;-75
2021/06/24 11:11:00;;;;;;;0.60;0.60;;;25.00;99.90;;;;;;5115399;27;20027;-76
2021/06/24 11:13:38;;;;;;;1.60;0.55;;;25.10;99.90;;;;;;5134386;27;20039;-76
2021/06/24 11:16:10;;;;;;;2.45;0.75;;;24.30;99.90;;;;;;5097557;28;20028;-76
2021/06/24 11:18:38;;;;;;;4.95;0.80;;;24.20;99.90;;;;;;5108540;28;20067;-73
2021/06/24 11:21:28;;;;;;;0.57;0.50;;;23.70;99.90;;;;;;5111366;28;20876;-75
2021/06/24 11:23:55;;;;;;;1.70;0.60;;;23.20;99.90;;;;;;5080734;28;20020;-75
2021/06/24 11:26:29;;;;;;;0.73;0.50;;;23.80;99.90;;;;;;5091957;28;20043;-74
2021/06/24 11:29:01;;;;;;;3.92;0.60;;;23.80;99.90;;;;;;5093081;28;20047;-73
2021/06/24 11:31:33;;;;;;;;;;;24.00;99.90;;;;;;5092954;28;20028;-75
2021/06/24 11:36:31;;;;;;;2.45;0.60;;;23.20;99.90;;;;;;5115540;28;20092;-75
2021/06/24 11:38:57;;;;;;;1.08;0.55;;;23.10;99.90;;;;;;5113316;28;20477;-73
2021/06/24 11:41:23;;;;;;;0.82;0.70;;;23.50;99.90;;;;;;5100230;28;20501;-74
2021/06/24 11:44:02;;;;;;;2.08;0.40;;;24.60;99.90;;;;;;5106256;28;20028;-74
2021/06/24 11:46:30;;;;;;;1.42;0.70;;;25.80;99.90;;;;;;5102085;27;20046;-75
2021/06/24 12:05:10;;;;;;;0.50;0.40;;;26.40;99.90;;;;;;5102428;27;20020;-73
2021/06/24 12:07:36;;;;;;;0.52;0.50;;;25.40;99.90;;;;;;5102062;27;20028;-74
2021/06/24 12:10:05;;;;;;;0.45;0.45;;;25.30;99.90;;;;;;5101423;28;20023;-73
2021/06/24 12:12:32;;;;;;;1.33;0.40;;;25.70;99.90;;;;;;5102251;27;20015;-74
2021/06/24 12:15:02;;;;;;;2.40;0.38;;;25.90;99.90;;;;;;5083088;28;20502;-74
2021/06/24 12:17:36;;;;;;;0.73;0.50;;;25.90;99.90;;;;;;5083460;28;20035;-75
2021/06/24 12:20:23;;;;;;;0.50;0.40;;;25.60;99.90;;;;;;5101014;28;20024;-75
2021/06/24 12:22:59;;;;;;;0.88;0.60;;;26.20;99.90;;;;;;5086819;28;20039;-74
2021/06/24 12:25:28;;;;;;;1.25;0.35;;;26.20;99.70;;;;;;5098665;28;20057;-74
2021/06/24 12:27:59;;;;;;;0.30;0.25;;;26.60;98.10;;;;;;5083715;28;20118;-73
2021/06/24 12:30:29;;;;;;;0.70;0.50;;;26.80;97.70;;;;;;5101386;28;20027;-75
2021/06/24 12:33:02;;;;;;;3.67;0.32;;;26.40;98.90;;;;;;5098658;28;20019;-73
2021/06/24 12:35:30;;;;;;;0.80;0.35;;;26.70;99.00;;;;;;5099949;28;20499;-74
2021/06/24 12:38:01;;;;;;;0.73;0.40;;;26.10;97.50;;;;;;5105760;28;20028;-74
2021/06/24 12:40:38;;;;;;;0.85;0.40;;;26.30;99.00;;;;;;5100206;28;20106;-74
2021/06/24 12:43:05;;;;;;;0.55;0.55;;;26.40;98.40;;;;;;5101215;28;20034;-74
2021/06/24 12:45:35;;;;;;;2.28;0.40;;;26.80;98.40;;;;;;5082946;28;20030;-73
2021/06/24 12:48:01;;;;;;;0.30;0.30;;;26.90;96.90;;;;;;5082599;28;20050;-74
2021/06/24 12:50:36;;;;;;;0.70;0.32;;;26.70;96.40;;;;;;5100983;28;20393;-73
2021/06/24 12:53:09;;;;;;;1.95;0.30;;;26.60;95.50;;;;;;5102118;28;20442;-73
2021/06/24 12:58:32;;;;;;;0.57;0.47;;;26.10;97.20;;;;;;5065438;28;20051;-75
2021/06/24 13:01:16;;;;;;;1.17;0.43;;;26.80;97.30;;;;;;5073718;28;20024;-76
2021/06/24 13:03:48;;;;;;;0.93;0.50;;;26.70;96.40;;;;;;5072496;28;20017;-74
2021/06/24 13:06:31;;;;;;;0.38;0.32;;;26.90;95.40;;;;;;5048289;28;20068;-74
2021/06/24 13:08:56;;;;;;;0.82;0.32;;;27.00;97.00;;;;;;5035536;28;20082;-76
2021/06/24 13:11:31;;;;;;;2.60;0.40;;;27.30;95.70;;;;;;5037999;28;20049;-76